Flight Track Log - Related Links

Times and Time Zones

All times are in EDT time to prevent confusion due to time zone crossing. See the N4508X flight status page for this flight to view local times or setup timezone preferences in your user account.

Time Position Orientation Groundspeed Altitude Reporting Facility
EDT Latitude Longitude Course Direction KTS MPH feet Rate Location/Type
Fri 02:56:29 PM 41.2122 -71.5903 326° Northwest 79 91 2,500  Level Boston Center
Fri 02:56:47 PM 41.2178 -71.5953 326° Northwest 78 90 2,600 380 Climbing Boston Center
Fri 02:57:48 PM 41.2414 -71.6067 340° North 83 96 3,000 337 Climbing Boston Center
Fri 02:58:16 PM 41.2500 -71.6136 329° Northwest 83 96 3,100 98 Climbing Boston Center
Fri 02:58:49 PM 41.2606 -71.6281 314° West 96 110 3,100 -100 Level Boston Center
Fri 02:59:16 PM 41.2725 -71.6347 337° Northwest 93 107 3,000 -100 Descending Boston Center
Fri 02:59:49 PM 41.2850 -71.6456 327° Northwest 99 114 3,000  Level Boston Center
Fri 03:00:19 PM 41.2950 -71.6561 322° Northwest 98 113 3,000  Level Boston Center
Fri 03:00:51 PM 41.3033 -71.6722 305° West 99 114 3,000  Level Boston Center
Fri 03:01:21 PM 41.3136 -71.6872 312° West 98 113 3,000 -200 Level Boston Center
Fri 03:01:51 PM 41.3189 -71.7011 297° West 95 109 2,800 -98 Descending Boston Center
Fri 03:02:22 PM 41.3267 -71.7169 303° West 96 110 2,900 90 Climbing Boston Center
Fri 03:02:58 PM 41.3331 -71.7378 292° West 102 117 2,900 95 Level Boston Center
Fri 03:03:25 PM 41.3369 -71.7489 295° West 88 101 3,000 100 Climbing Boston Center
Fri 03:03:58 PM 41.3375 -71.7681 272° West 88 101 3,000  Level Boston Center
Fri 03:04:25 PM 41.3394 -71.7831 280° West 92 106 3,000  Level Boston Center
Fri 03:04:59 PM 41.3361 -71.8050 259° West 106 122 3,000 -94 Level Boston Center
Fri 03:05:29 PM 41.3342 -71.8217 261° West 102 117 2,900  Descending Boston Center
Fri 03:05:53 PM 41.3314 -71.8375 257° West 93 107 3,000 200 Climbing Boston Center
Fri 03:06:29 PM 41.3300 -71.8578 265° West 95 109 3,100 94 Climbing Boston Center
Fri 03:06:57 PM 41.3297 -71.8772 269° West 111 128 3,100  Level Boston Center
Fri 03:07:31 PM 41.3300 -71.8989 271° West 108 124 3,100 -94 Level Boston Center
Fri 03:08:01 PM 41.3272 -71.9194 260° West 91 105 3,000 -100 Descending Boston Center
Fri 03:08:31 PM 41.3272 -71.9372 270° West 102 117 3,000 -94 Level Boston Center
Fri 03:09:05 PM 41.3267 -71.9536 267° West 100 115 2,900 -94 Descending Boston Center
Fri 03:09:35 PM 41.3256 -71.9739 266° West 101 116 2,900  Level Boston Center
Fri 03:09:53 PM 41.3239 -71.9869 260° West 101 116 2,900 -97 Level Boston Center
Fri 03:10:37 PM 41.3222 -72.0078 264° West 101 116 2,800 -102 Descending Boston Center
Fri 03:10:52 PM 41.3211 -72.0203 263° West 100 115 2,800 100 Level Boston Center
Fri 03:11:37 PM 41.3211 -72.0472 270° West 95 109 2,900 174 Climbing Boston Center
Fri 03:12:01 PM 41.3217 -72.0581 274° West 101 116 3,000  Climbing Boston Center
Fri 03:12:41 PM 41.3178 -72.0847 259° West 101 116 2,900 -98 Descending Boston Center
Fri 03:13:02 PM 41.3128 -72.1006 247° West 110 127 2,900  Level Boston Center
Fri 03:13:41 PM 41.3106 -72.1211 262° West 102 117 2,900  Level Boston Center
Fri 03:14:08 PM 41.3069 -72.1386 255° West 100 115 2,900 95 Level Boston Center
Fri 03:14:44 PM 41.3047 -72.1589 262° West 100 115 3,000 98 Climbing Boston Center
Fri 03:15:09 PM 41.3036 -72.1747 265° West 96 110 3,000  Level Boston Center
Fri 03:15:46 PM 41.3036 -72.1956 270° West 98 113 3,000  Level Boston Center
Fri 03:16:10 PM 41.3022 -72.2114 263° West 98 113 3,000 100 Level Boston Center
Fri 03:16:46 PM 41.3017 -72.2303 268° West 98 113 3,100 197 Climbing Boston Center
Fri 03:17:11 PM 41.2953 -72.2433 237° Southwest 104 120 3,200  Climbing Boston Center
Fri 03:17:47 PM 41.2931 -72.2661 263° West 97 112 3,100 -98 Descending Boston Center
Fri 03:18:12 PM 41.2933 -72.2831 271° West 98 113 3,100  Level Boston Center
Fri 03:18:51 PM 41.2967 -72.3056 281° West 99 114 3,100 -100 Level Boston Center
Fri 03:19:12 PM 41.2961 -72.3214 267° West 114 131 3,000  Descending Boston Center
Fri 03:19:53 PM 41.2931 -72.3439 260° West 102 117 3,100 59 Climbing Boston Center
Fri 03:20:53 PM 41.2914 -72.3778 266° West 102 117 3,100 -50 Level Boston Center
Fri 03:21:53 PM 41.2886 -72.4208 265° West 102 117 3,000 -192 Descending Boston Center
Fri 03:22:58 PM 41.2864 -72.4583 266° West 102 117 2,700 -48 Descending Boston Center
Fri 03:23:58 PM 41.2833 -72.4919 263° West 90 104 2,900 149 Climbing Boston Center
Fri 03:24:59 PM 41.2847 -72.5261 273° West 90 104 3,000 -48 Climbing Boston Center
Fri 03:26:03 PM 41.2836 -72.5619 268° West 94 108 2,800 -97 Descending Boston Center
Fri 03:27:03 PM 41.2825 -72.6000 268° West 95 109 2,800 49 Level Boston Center
Fri 03:28:05 PM 41.2803 -72.6353 265° West 95 109 2,900 144 Climbing Boston Center
Fri 03:29:08 PM 41.2769 -72.6728 263° West 100 115 3,100  Climbing Boston Center
Fri 03:30:09 PM 41.2733 -72.7158 264° West 106 122 2,900 -99 Descending Boston Center
Fri 03:31:09 PM 41.2725 -72.7492 268° West 96 110 2,900 49 Level Boston Center
Fri 03:32:12 PM 41.2706 -72.7772 265° West 89 102 3,000 97 Climbing Boston Center
Fri 03:33:13 PM 41.2742 -72.8189 277° West 92 106 3,100 49 Climbing Boston Center
Fri 03:34:14 PM 41.2747 -72.8539 271° West 95 109 3,100  Level Boston Center
Fri 03:35:18 PM 41.2789 -72.8867 280° West 93 107 3,100  Level Boston Center
Fri 03:36:18 PM 41.2706 -72.9217 252° West 100 115 3,100 -194 Level Boston Center
Fri 03:37:22 PM 41.2581 -72.9561 244° Southwest 104 120 2,700 -48 Descending Boston Center
Fri 03:38:22 PM 41.2486 -72.9925 251° West 104 120 3,000 99 Climbing Boston Center
Fri 03:39:23 PM 41.2342 -73.0219 237° Southwest 102 117 2,900 -49 Descending Boston Center
Fri 03:40:24 PM 41.2203 -73.0533 240° Southwest 99 114 2,900  Level Boston Center
Fri 03:41:27 PM 41.2083 -73.0883 246° West 99 114 2,900 48 Level Boston Center
Fri 03:42:28 PM 41.1983 -73.1306 253° West 100 115 3,000 96 Climbing Boston Center
Fri 03:43:32 PM 41.1975 -73.1650 268° West 99 114 3,100 96 Climbing Boston Center
Fri 03:44:33 PM 41.2006 -73.1981 277° West 95 109 3,200 50 Climbing Boston Center
Fri 03:45:33 PM 41.1958 -73.2356 261° West 97 112 3,200 -50 Level Boston Center
Fri 03:46:34 PM 41.1850 -73.2717 248° West 102 117 3,100 -144 Descending Boston Center
Fri 03:47:38 PM 41.1681 -73.3036 235° Southwest 103 119 2,900 -97 Descending Boston Center
Fri 03:48:38 PM 41.1503 -73.3461 241° Southwest 104 120 2,900  Level Boston Center
Fri 03:49:39 PM 41.1458 -73.3819 261° West 104 120 2,900  Level Boston Center
Fri 03:50:42 PM 41.1481 -73.4183 275° West 104 120 2,900 -48 Level Boston Center
Fri 03:51:43 PM 41.1381 -73.4511 248° West 101 116 2,800 -149 Descending Boston Center
Fri 03:52:43 PM 41.1333 -73.4869 260° West 101 116 2,600 -485 Descending Boston Center
Fri 03:53:59 PM 41.1167 -73.5333 245° Southwest 98 113 1,700 -441 Descending New York TRACON
Fri 03:54:59 PM 41.1000 -73.5500 217° Southwest 104 120 1,600 -48 Descending New York TRACON
Fri 03:56:05 PM 41.0667 -73.5833 217° Southwest 104 120 1,600  Level New York TRACON
Fri 03:56:59 PM 41.0500 -73.6000 217° Southwest 106 122 1,600 -222 Level New York TRACON
Fri 03:57:53 PM 41.0500 -73.6333 270° West 100 115 1,200 -316 Descending New York TRACON
Fri 03:58:53 PM 41.0500 -73.6667 270° West 82 94 1,000 -250 Descending New York TRACON
Fri 03:59:53 PM 41.0667 -73.6833 323° Northwest 80 92 700 -300 Descending New York TRACON
Fri 04:02:00 PM 41.0667 -73.7000 270° West  Level FlightAware Approximate
Fri 04:09:00 PM 41.0669 -73.7076 270° West  Level Estimated

Login

Don't have an account? Register now (free) for customized features, flight alerts, and more!